createdAt,value
2018-07-20T00:02:51.061Z,4.43
2018-07-20T00:07:54.577Z,5.20
2018-07-20T00:12:58.421Z,6.07
2018-07-20T00:18:02.346Z,4.80
2018-07-20T00:23:05.692Z,3.70
2018-07-20T00:28:09.124Z,3.70
2018-07-20T00:33:13.452Z,4.70
2018-07-20T00:38:17.379Z,4.63
2018-07-20T00:43:21.037Z,2.40
2018-07-20T00:48:25.134Z,4.70
2018-07-20T00:53:29.011Z,3.63
2018-07-20T00:58:33.157Z,5.10
2018-07-20T01:03:36.985Z,4.93
2018-07-20T01:08:40.535Z,5.43
2018-07-20T01:13:44.224Z,4.87
2018-07-20T01:18:47.997Z,6.07
2018-07-20T01:23:51.205Z,3.93
2018-07-20T01:28:54.990Z,6.83
2018-07-20T01:33:59.338Z,8.10
2018-07-20T01:39:04.174Z,7.60
2018-07-20T01:44:07.964Z,7.70
2018-07-20T01:49:11.513Z,6.80
2018-07-20T01:54:14.726Z,5.33
2018-07-20T01:59:18.117Z,3.00
2018-07-20T02:04:21.724Z,3.13
2018-07-20T02:09:25.281Z,2.93
2018-07-20T02:14:28.689Z,3.00
2018-07-20T02:19:32.422Z,2.23
2018-07-20T02:24:36.212Z,2.33
2018-07-20T02:29:39.910Z,4.60
2018-07-20T02:34:43.581Z,3.60
2018-07-20T02:39:47.548Z,3.10
2018-07-20T02:44:52.480Z,4.33
2018-07-20T02:49:56.467Z,6.97
2018-07-20T02:55:00.016Z,5.60
2018-07-20T03:00:03.782Z,6.97
2018-07-20T03:05:07.789Z,7.53
2018-07-20T03:10:11.461Z,6.93
2018-07-20T03:15:15.135Z,3.23
2018-07-20T03:20:18.595Z,3.10
2018-07-20T03:25:22.141Z,5.43
2018-07-20T03:30:25.642Z,6.43
2018-07-20T03:35:29.551Z,8.40
2018-07-20T03:40:33.166Z,5.70
2018-07-20T03:45:36.652Z,3.97
2018-07-20T03:50:40.380Z,3.70
2018-07-20T03:55:43.879Z,3.03
2018-07-20T04:00:47.272Z,2.87
2018-07-20T04:05:51.174Z,2.90
2018-07-20T04:10:54.557Z,3.77
2018-07-20T04:15:58.144Z,3.43
2018-07-20T04:21:01.859Z,2.40
2018-07-20T04:26:05.645Z,3.40
2018-07-20T04:31:08.881Z,2.90
2018-07-20T04:36:12.433Z,3.60
2018-07-20T04:41:15.632Z,4.50
2018-07-20T04:46:18.971Z,4.00
2018-07-20T04:51:22.733Z,5.53
2018-07-20T04:56:26.552Z,3.87
2018-07-20T05:01:29.766Z,2.73
2018-07-20T05:06:33.316Z,2.80
2018-07-20T05:11:36.681Z,6.80
2018-07-20T05:16:39.912Z,3.43
2018-07-20T05:21:43.429Z,3.50
2018-07-20T05:26:46.617Z,3.50
2018-07-20T05:31:49.822Z,3.37
2018-07-20T05:36:53.458Z,3.50
2018-07-20T05:41:56.781Z,3.10
2018-07-20T05:46:59.943Z,5.60
2018-07-20T05:52:03.423Z,4.47
2018-07-20T05:57:06.631Z,4.80
2018-07-20T06:02:09.947Z,4.30
2018-07-20T06:07:14.367Z,4.17
2018-07-20T06:12:17.613Z,3.97
2018-07-20T06:17:20.837Z,3.60
2018-07-20T06:22:24.379Z,3.57
2018-07-20T06:27:27.590Z,3.53
2018-07-20T06:32:30.815Z,3.50
2018-07-20T06:37:34.461Z,3.73
2018-07-20T06:42:37.747Z,3.40
2018-07-20T06:47:41.046Z,3.30
2018-07-20T06:52:45.327Z,3.00
2018-07-20T06:57:49.081Z,2.57
2018-07-20T07:02:52.457Z,2.80
2018-07-20T07:07:58.248Z,3.37
2018-07-20T07:13:01.525Z,2.20
2018-07-20T07:18:05.845Z,2.03
2018-07-20T07:23:09.748Z,2.40
2018-07-20T07:28:13.360Z,2.33
2018-07-20T07:33:16.550Z,1.80
2018-07-20T07:38:20.264Z,2.10
2018-07-20T07:43:23.509Z,2.10
2018-07-20T07:48:26.699Z,2.03
2018-07-20T07:53:30.097Z,2.47
2018-07-20T07:58:33.643Z,4.00
2018-07-20T08:03:37.056Z,1.87
2018-07-20T08:08:46.150Z,2.70
2018-07-20T08:13:50.022Z,2.30
2018-07-20T08:18:53.626Z,2.00
2018-07-20T08:23:57.041Z,1.80
2018-07-20T08:29:00.694Z,1.80
2018-07-20T08:34:10.703Z,2.00
2018-07-20T08:39:14.952Z,2.27
2018-07-20T08:44:18.178Z,1.83
2018-07-20T08:49:21.421Z,1.80
2018-07-20T08:54:30.468Z,2.07
2018-07-20T08:59:34.086Z,1.97
2018-07-20T09:04:37.772Z,2.60
2018-07-20T09:09:42.315Z,1.80
2018-07-20T09:14:45.568Z,1.93
2018-07-20T09:19:48.779Z,2.07
2018-07-20T09:24:52.062Z,2.53
2018-07-20T09:29:55.361Z,2.23
2018-07-20T09:34:58.948Z,2.67
2018-07-20T09:40:02.234Z,2.83
2018-07-20T09:45:06.139Z,3.10
2018-07-20T09:50:10.998Z,3.00
2018-07-20T09:55:14.310Z,2.33
2018-07-20T10:00:23.933Z,2.73
2018-07-20T10:05:27.186Z,3.53
2018-07-20T10:10:31.811Z,3.37
2018-07-20T10:15:35.331Z,3.20
2018-07-20T10:20:39.505Z,3.23
2018-07-20T10:25:49.657Z,2.67
2018-07-20T10:30:53.451Z,4.43
2018-07-20T10:35:56.715Z,3.60
2018-07-20T10:41:01.090Z,3.23
2018-07-20T10:46:04.441Z,2.70
2018-07-20T10:51:07.812Z,3.10
2018-07-20T10:56:11.185Z,3.33
2018-07-20T11:01:14.812Z,3.87
2018-07-20T11:06:18.370Z,3.33
2018-07-20T11:11:23.609Z,3.80
2018-07-20T11:16:26.867Z,3.60
2018-07-20T11:21:34.916Z,3.57
2018-07-20T11:26:39.192Z,3.40
2018-07-20T11:31:42.506Z,4.00
2018-07-20T11:36:45.771Z,3.23
2018-07-20T11:41:49.023Z,3.13
2018-07-20T11:46:56.852Z,3.60
2018-07-20T11:52:00.488Z,3.50
2018-07-20T11:57:03.740Z,2.90
2018-07-20T12:02:06.978Z,3.23
2018-07-20T12:07:10.419Z,2.63
2018-07-20T12:12:17.662Z,3.80
2018-07-20T12:17:22.905Z,3.70
2018-07-20T12:22:26.319Z,3.20
2018-07-20T12:27:30.105Z,3.30
2018-07-20T12:32:33.401Z,3.73
2018-07-20T12:37:36.674Z,3.40
2018-07-20T12:42:40.552Z,3.17
2018-07-20T12:47:44.489Z,3.97
2018-07-20T12:52:47.828Z,3.30
2018-07-20T12:57:51.812Z,3.40
2018-07-20T13:03:02.094Z,3.80
2018-07-20T13:08:05.842Z,3.60
2018-07-20T13:13:35.768Z,3.60
2018-07-20T13:18:40.044Z,3.20
2018-07-20T13:23:46.834Z,4.00
2018-07-20T13:28:50.184Z,3.63
2018-07-20T13:33:53.527Z,3.40
2018-07-20T13:38:56.852Z,3.07
2018-07-20T13:44:00.667Z,3.57
2018-07-20T13:49:04.493Z,3.40
2018-07-20T13:54:08.540Z,3.70
2018-07-20T13:59:12.320Z,3.53
2018-07-20T14:04:15.788Z,3.60
2018-07-20T14:09:19.273Z,3.57
2018-07-20T14:14:24.800Z,3.87
2018-07-20T14:19:28.337Z,3.73
2018-07-20T14:24:31.980Z,3.50
2018-07-20T14:29:35.947Z,3.83
2018-07-20T14:34:39.806Z,4.00
2018-07-20T14:39:43.274Z,3.97
2018-07-20T14:44:47.597Z,4.27
2018-07-20T14:49:51.218Z,4.40
2018-07-20T14:54:54.965Z,4.20
2018-07-20T14:59:59.045Z,4.27
2018-07-20T15:05:02.827Z,4.00
2018-07-20T15:10:06.214Z,5.07
2018-07-20T15:15:10.172Z,4.80
2018-07-20T15:20:13.646Z,5.07
2018-07-20T15:25:17.082Z,4.37
2018-07-20T15:30:20.540Z,4.90
2018-07-20T15:35:27.544Z,4.73
2018-07-20T15:40:39.408Z,4.27
2018-07-20T15:45:51.969Z,4.20
2018-07-20T15:50:47.568Z,4.37
2018-07-20T15:55:50.933Z,4.67
2018-07-20T16:00:54.361Z,4.90
2018-07-20T16:05:58.106Z,4.43
2018-07-20T16:11:01.533Z,3.87
2018-07-20T16:16:09.691Z,4.63
2018-07-20T16:21:13.548Z,4.20
2018-07-20T16:26:16.873Z,4.80
2018-07-20T16:31:20.227Z,4.87
2018-07-20T16:36:23.531Z,5.33
2018-07-20T16:41:27.117Z,5.20
2018-07-20T16:46:31.451Z,5.10
2018-07-20T16:51:34.685Z,4.73
2018-07-20T16:56:38.019Z,5.67
2018-07-20T17:01:42.152Z,4.80
2018-07-20T17:06:45.363Z,5.37
2018-07-20T17:11:49.857Z,5.40
2018-07-20T17:16:53.301Z,5.90
2018-07-20T17:21:56.527Z,4.40
2018-07-20T17:27:04.136Z,4.37
2018-07-20T17:32:08.080Z,4.33
2018-07-20T17:37:11.277Z,3.83
2018-07-20T17:42:14.797Z,5.33
2018-07-20T17:47:18.845Z,4.17
2018-07-20T17:52:22.052Z,4.37
2018-07-20T17:57:25.247Z,3.80
2018-07-20T18:02:28.907Z,3.40
2018-07-20T18:07:32.544Z,3.90
2018-07-20T18:12:36.110Z,4.00
2018-07-20T18:17:40.562Z,3.63
2018-07-20T18:22:43.862Z,4.17
2018-07-20T18:27:47.144Z,3.27
2018-07-20T18:32:50.434Z,3.90
2018-07-20T18:37:53.687Z,4.07
2018-07-20T18:42:56.996Z,3.80
2018-07-20T18:48:00.832Z,4.03
2018-07-20T18:53:04.328Z,3.67
2018-07-20T18:58:07.910Z,3.60
2018-07-20T19:03:11.816Z,4.63
2018-07-20T19:08:15.063Z,3.73
2018-07-20T19:13:40.437Z,3.50
2018-07-20T19:18:47.418Z,4.10
2018-07-20T19:24:53.598Z,3.02
2018-07-20T19:29:58.238Z,3.27
2018-07-20T19:35:02.318Z,2.70
2018-07-20T19:40:05.336Z,3.50
2018-07-20T19:45:08.635Z,3.30
2018-07-20T19:50:12.455Z,2.80
2018-07-20T19:55:15.754Z,2.87
2018-07-20T20:00:19.075Z,2.90
2018-07-20T20:05:22.394Z,2.70
2018-07-20T20:10:25.714Z,2.70
2018-07-20T20:15:30.689Z,3.00
2018-07-20T20:20:52.103Z,2.93
2018-07-20T20:25:56.287Z,3.00
2018-07-20T20:30:59.880Z,2.80
2018-07-20T20:36:07.335Z,2.70
2018-07-20T20:41:11.729Z,2.73
2018-07-20T20:46:15.158Z,3.13
2018-07-20T20:51:22.899Z,3.27
2018-07-20T20:56:26.917Z,3.80
2018-07-20T21:01:31.667Z,3.40
2018-07-20T21:06:34.700Z,3.20
2018-07-20T21:11:38.103Z,3.70
2018-07-20T21:16:41.665Z,2.67
2018-07-20T21:21:45.685Z,2.90
2018-07-20T21:26:49.005Z,3.37
2018-07-20T21:31:52.432Z,3.23
2018-07-20T21:36:56.046Z,3.90
2018-07-20T21:41:59.321Z,3.80
2018-07-20T21:47:02.955Z,3.30
2018-07-20T21:52:08.100Z,3.00
2018-07-20T21:57:11.337Z,3.10
2018-07-20T22:02:14.714Z,3.73
2018-07-20T22:07:18.075Z,3.43
2018-07-20T22:12:21.446Z,4.00
2018-07-20T22:17:24.898Z,4.07
2018-07-20T22:22:30.432Z,4.23
2018-07-20T22:27:34.006Z,3.53
2018-07-20T22:32:37.432Z,4.40
2018-07-20T22:37:40.841Z,3.50
2018-07-20T22:42:44.141Z,4.13
2018-07-20T22:47:52.775Z,3.10
2018-07-20T22:52:56.720Z,4.00
2018-07-20T22:57:59.988Z,5.00
2018-07-20T23:03:03.177Z,4.67
2018-07-20T23:08:06.402Z,3.73
2018-07-20T23:13:09.681Z,4.97
2018-07-20T23:18:13.262Z,5.10
2018-07-20T23:23:17.093Z,4.43
2018-07-20T23:28:20.343Z,4.20
2018-07-20T23:33:30.682Z,3.73
2018-07-20T23:38:34.107Z,3.77
2018-07-20T23:43:37.385Z,5.10
2018-07-20T23:48:41.826Z,5.33
2018-07-20T23:53:45.501Z,5.60
2018-07-20T23:58:49.470Z,5.60
